PWSweather.com
Personal Weather Stations
Station Observations
IONTARIO88
Lincoln, ON L0R

Lincoln, ON L0R

Lat: 43.1763563, Lon: -79.4719525

Elevation: 297

Station Type: Davis Vantage Pro 2 Plus

http://www.beamsvillewx.ca

Latest ConditionsUpdated 7:10:04 PM EST Sunday, Jan 22, 2017
Currently Today's Max Today's Min Today's Average
Temperature 39.1°F3.9°C 40.9°F4.9°C 37.9°F3.3°C 39.5°F4.2°C
Dew Point 38.1°F3.4°C 39.8°F4.3°C 36.9°F2.7°C 38.4°F3.6°C
Winds 2.3 mph NE3.7 kmh NE 6.9 mph NE11.1 kmh NE - 2.1 mph 3.4 kmh
Wind Gusts 5.8 mph9.3 kmh 11.5 mph18.5 kmh - -
Humidity 96% 96% 95% 96%
Pressure 29.71 in1006.1 mb 29.73 in1006.8 mb 29.67 in1004.7 mb -
Hour Temp Dew Point Humidity Winds Wind Gusts Pressure Precip Precip Rate Daily Precip Total
07:10 PM 39.1°F3.9°C 38.1°F3.4°C 96% 2.3 mph NE3.7 kmh NE 5.8 mph9.3 kmh 29.71 in1006.1 mb - 0.00 in0.0 mm 0.00 in0.0 mm
07:00 PM 39.1°F3.9°C 38.1°F3.4°C 96% 3.5 mph NE5.6 kmh NE 4.6 mph7.4 kmh 29.71 in1006.1 mb - 0.00 in0.0 mm 0.00 in0.0 mm
06:50 PM 39.2°F4.0°C 38.2°F3.4°C 96% 2.3 mph NE3.7 kmh NE 3.5 mph5.6 kmh 29.70 in1005.8 mb - 0.00 in0.0 mm 0.00 in0.0 mm
06:40 PM 39.2°F4.0°C 38.2°F3.4°C 96% 3.5 mph NE5.6 kmh NE 3.5 mph5.6 kmh 29.70 in1005.8 mb - 0.00 in0.0 mm 0.00 in0.0 mm
06:30 PM 39.3°F4.1°C 38.3°F3.5°C 96% 2.3 mph NE3.7 kmh NE 4.6 mph7.4 kmh 29.70 in1005.8 mb - 0.00 in0.0 mm 0.00 in0.0 mm
06:20 PM 39.2°F4.0°C 38.2°F3.4°C 96% 2.3 mph NE3.7 kmh NE 3.5 mph5.6 kmh 29.69 in1005.4 mb - 0.00 in0.0 mm 0.00 in0.0 mm
06:10 PM 39.2°F4.0°C 38.2°F3.4°C 96% 2.3 mph NE3.7 kmh NE 3.5 mph5.6 kmh 29.69 in1005.4 mb - 0.00 in0.0 mm 0.00 in0.0 mm
06:00 PM 39.1°F3.9°C 38.1°F3.4°C 96% 2.3 mph NE3.7 kmh NE 4.6 mph7.4 kmh 29.69 in1005.4 mb - 0.00 in0.0 mm 0.00 in0.0 mm
05:50 PM 39.2°F4.0°C 38.2°F3.4°C 96% 3.5 mph ENE5.6 kmh ENE 4.6 mph7.4 kmh 29.69 in1005.4 mb - 0.00 in0.0 mm 0.00 in0.0 mm
05:40 PM 39.2°F4.0°C 38.2°F3.4°C 96% 3.5 mph NE5.6 kmh NE 6.9 mph11.1 kmh 29.69 in1005.4 mb - 0.00 in0.0 mm 0.00 in0.0 mm
05:30 PM 39.6°F4.2°C 38.5°F3.6°C 96% 4.6 mph NE7.4 kmh NE 8.1 mph13.0 kmh 29.68 in1005.1 mb - 0.00 in0.0 mm 0.00 in0.0 mm
05:20 PM 39.6°F4.2°C 38.6°F3.7°C 96% 3.5 mph NE5.6 kmh NE 8.1 mph13.0 kmh 29.68 in1005.1 mb - 0.00 in0.0 mm 0.00 in0.0 mm
05:10 PM 39.5°F4.2°C 38.5°F3.6°C 96% 2.3 mph NE3.7 kmh NE 3.5 mph5.6 kmh 29.68 in1005.1 mb - 0.00 in0.0 mm 0.00 in0.0 mm
05:00 PM 39.5°F4.2°C 38.5°F3.6°C 96% 4.6 mph ENE7.4 kmh ENE 6.9 mph11.1 kmh 29.68 in1005.1 mb - 0.00 in0.0 mm 0.00 in0.0 mm
04:50 PM 39.6°F4.2°C 38.6°F3.7°C 96% 4.6 mph ENE7.4 kmh ENE 6.9 mph11.1 kmh 29.68 in1005.1 mb - 0.00 in0.0 mm 0.00 in0.0 mm
04:40 PM 39.3°F4.1°C 38.3°F3.5°C 96% 5.8 mph ENE9.3 kmh ENE 10.4 mph16.7 kmh 29.68 in1005.1 mb - 0.00 in0.0 mm 0.00 in0.0 mm
04:30 PM 39.2°F4.0°C 38.2°F3.4°C 96% 4.6 mph ENE7.4 kmh ENE 8.1 mph13.0 kmh 29.68 in1005.1 mb - 0.00 in0.0 mm 0.00 in0.0 mm
04:20 PM 39.2°F4.0°C 38.2°F3.4°C 96% 4.6 mph ENE7.4 kmh ENE 8.1 mph13.0 kmh 29.68 in1005.1 mb - 0.00 in0.0 mm 0.00 in0.0 mm
04:10 PM 39.4°F4.1°C 38.4°F3.6°C 96% 4.6 mph ENE7.4 kmh ENE 9.2 mph14.8 kmh 29.68 in1005.1 mb - 0.00 in0.0 mm 0.00 in0.0 mm
04:00 PM 39.5°F4.2°C 38.5°F3.6°C 96% 6.9 mph ENE11.1 kmh ENE 11.5 mph18.5 kmh 29.68 in1005.1 mb - 0.00 in0.0 mm 0.00 in0.0 mm
03:50 PM 39.5°F4.2°C 38.5°F3.6°C 96% 5.8 mph NE9.3 kmh NE 6.9 mph11.1 kmh 29.68 in1005.1 mb - 0.00 in0.0 mm 0.00 in0.0 mm
03:40 PM 39.5°F4.2°C 38.5°F3.6°C 96% 4.6 mph NE7.4 kmh NE 5.8 mph9.3 kmh 29.69 in1005.4 mb - 0.00 in0.0 mm 0.00 in0.0 mm
03:30 PM 39.6°F4.2°C 38.6°F3.7°C 96% 3.5 mph NE5.6 kmh NE 8.1 mph13.0 kmh 29.69 in1005.4 mb - 0.00 in0.0 mm 0.00 in0.0 mm
03:20 PM 39.7°F4.3°C 38.7°F3.7°C 96% 5.8 mph NE9.3 kmh NE 9.2 mph14.8 kmh 29.68 in1005.1 mb - 0.00 in0.0 mm 0.00 in0.0 mm
03:10 PM 39.8°F4.3°C 38.8°F3.8°C 96% 4.6 mph NE7.4 kmh NE 5.8 mph9.3 kmh 29.68 in1005.1 mb - 0.00 in0.0 mm 0.00 in0.0 mm
03:00 PM 40.0°F4.4°C 38.9°F3.8°C 96% 6.9 mph NE11.1 kmh NE 11.5 mph18.5 kmh 29.68 in1005.1 mb - 0.00 in0.0 mm 0.00 in0.0 mm
02:50 PM 40.2°F4.6°C 39.2°F4.0°C 96% 5.8 mph NE9.3 kmh NE 11.5 mph18.5 kmh 29.68 in1005.1 mb - 0.00 in0.0 mm 0.00 in0.0 mm
02:40 PM 40.4°F4.7°C 39.3°F4.1°C 96% 5.8 mph NE9.3 kmh NE 8.1 mph13.0 kmh 29.68 in1005.1 mb - 0.00 in0.0 mm 0.00 in0.0 mm
02:30 PM 40.4°F4.7°C 39.4°F4.1°C 96% 3.5 mph NE5.6 kmh NE 5.8 mph9.3 kmh 29.68 in1005.1 mb - 0.00 in0.0 mm 0.00 in0.0 mm
02:20 PM 40.6°F4.8°C 39.5°F4.2°C 96% 4.6 mph NE7.4 kmh NE 4.6 mph7.4 kmh 29.68 in1005.1 mb - 0.00 in0.0 mm 0.00 in0.0 mm
02:10 PM 40.8°F4.9°C 39.7°F4.3°C 96% 3.5 mph NE5.6 kmh NE 8.1 mph13.0 kmh 29.68 in1005.1 mb - 0.00 in0.0 mm 0.00 in0.0 mm
02:00 PM 40.4°F4.7°C 39.4°F4.1°C 96% 2.3 mph NE3.7 kmh NE 3.5 mph5.6 kmh 29.68 in1005.1 mb - 0.00 in0.0 mm 0.00 in0.0 mm
01:50 PM 40.4°F4.7°C 39.4°F4.1°C 96% 2.3 mph NE3.7 kmh NE 3.5 mph5.6 kmh 29.68 in1005.1 mb - 0.00 in0.0 mm 0.00 in0.0 mm
01:40 PM 40.6°F4.8°C 39.5°F4.2°C 96% 4.6 mph NE7.4 kmh NE 8.1 mph13.0 kmh 29.68 in1005.1 mb - 0.00 in0.0 mm 0.00 in0.0 mm
01:30 PM 40.6°F4.8°C 39.6°F4.2°C 96% 3.5 mph NE5.6 kmh NE 4.6 mph7.4 kmh 29.68 in1005.1 mb - 0.00 in0.0 mm 0.00 in0.0 mm
01:20 PM 40.9°F4.9°C 39.8°F4.3°C 96% 3.5 mph NE5.6 kmh NE 3.5 mph5.6 kmh 29.68 in1005.1 mb - 0.00 in0.0 mm 0.00 in0.0 mm
01:10 PM 40.8°F4.9°C 39.8°F4.3°C 96% 3.5 mph NE5.6 kmh NE 4.6 mph7.4 kmh 29.68 in1005.1 mb - 0.00 in0.0 mm 0.00 in0.0 mm
01:00 PM 40.6°F4.8°C 39.5°F4.2°C 96% 3.5 mph NE5.6 kmh NE 3.5 mph5.6 kmh 29.69 in1005.4 mb - 0.00 in0.0 mm 0.00 in0.0 mm
12:50 PM 40.2°F4.6°C 39.2°F4.0°C 96% 1.2 mph NE1.9 kmh NE 2.3 mph3.7 kmh 29.70 in1005.8 mb - 0.00 in0.0 mm 0.00 in0.0 mm
12:40 PM 40.0°F4.4°C 39.0°F3.9°C 96% 2.3 mph NE3.7 kmh NE 3.5 mph5.6 kmh 29.70 in1005.8 mb - 0.00 in0.0 mm 0.00 in0.0 mm
12:30 PM 40.0°F4.4°C 39.0°F3.9°C 96% 4.6 mph NE7.4 kmh NE 5.8 mph9.3 kmh 29.70 in1005.8 mb - 0.00 in0.0 mm 0.00 in0.0 mm
12:20 PM 39.8°F4.3°C 38.8°F3.8°C 96% 1.2 mph NE1.9 kmh NE 3.5 mph5.6 kmh 29.71 in1006.1 mb - 0.00 in0.0 mm 0.00 in0.0 mm
12:10 PM 39.7°F4.3°C 38.6°F3.7°C 96% 2.3 mph NE3.7 kmh NE 3.5 mph5.6 kmh 29.71 in1006.1 mb - 0.00 in0.0 mm 0.00 in0.0 mm
12:00 PM 39.7°F4.3°C 38.7°F3.7°C 96% 3.5 mph NE5.6 kmh NE 4.6 mph7.4 kmh 29.71 in1006.1 mb - 0.00 in0.0 mm 0.00 in0.0 mm
11:50 AM 39.7°F4.3°C 38.7°F3.7°C 96% 2.3 mph NE3.7 kmh NE 2.3 mph3.7 kmh 29.72 in1006.4 mb - 0.00 in0.0 mm 0.00 in0.0 mm
11:40 AM 39.7°F4.3°C 38.7°F3.7°C 96% 2.3 mph NE3.7 kmh NE 3.5 mph5.6 kmh 29.73 in1006.8 mb - 0.00 in0.0 mm 0.00 in0.0 mm
11:30 AM 39.6°F4.2°C 38.6°F3.7°C 96% 1.2 mph NE1.9 kmh NE 2.3 mph3.7 kmh 29.72 in1006.4 mb - 0.00 in0.0 mm 0.00 in0.0 mm
11:20 AM 39.5°F4.2°C 38.5°F3.6°C 96% 1.2 mph NE1.9 kmh NE 1.2 mph1.9 kmh 29.72 in1006.4 mb - 0.00 in0.0 mm 0.00 in0.0 mm
11:10 AM 39.3°F4.1°C 38.3°F3.5°C 96% 1.2 mph NE1.9 kmh NE 2.3 mph3.7 kmh 29.73 in1006.8 mb - 0.00 in0.0 mm 0.00 in0.0 mm
11:00 AM 39.0°F3.9°C 38.0°F3.3°C 96% Calm Calm 1.2 mph1.9 kmh 29.73 in1006.8 mb - 0.00 in0.0 mm 0.00 in0.0 mm
10:50 AM 38.8°F3.8°C 37.8°F3.2°C 96% Calm Calm 3.5 mph5.6 kmh 29.72 in1006.4 mb - 0.00 in0.0 mm 0.00 in0.0 mm
10:40 AM 38.8°F3.8°C 37.7°F3.2°C 96% 2.3 mph NE3.7 kmh NE 3.5 mph5.6 kmh 29.73 in1006.8 mb - 0.00 in0.0 mm 0.00 in0.0 mm
10:30 AM 38.7°F3.7°C 37.7°F3.2°C 96% Calm Calm 1.2 mph1.9 kmh 29.73 in1006.8 mb - 0.00 in0.0 mm 0.00 in0.0 mm
10:20 AM 38.5°F3.6°C 37.5°F3.1°C 96% Calm Calm 1.2 mph1.9 kmh 29.73 in1006.8 mb - 0.00 in0.0 mm 0.00 in0.0 mm
10:10 AM 38.3°F3.5°C 37.3°F2.9°C 96% 2.3 mph NE3.7 kmh NE 3.5 mph5.6 kmh 29.73 in1006.8 mb - 0.00 in0.0 mm 0.00 in0.0 mm
10:00 AM 38.5°F3.6°C 37.5°F3.1°C 96% 3.5 mph NE5.6 kmh NE 3.5 mph5.6 kmh 29.72 in1006.4 mb - 0.00 in0.0 mm 0.00 in0.0 mm
09:50 AM 38.7°F3.7°C 37.6°F3.1°C 96% 2.3 mph NE3.7 kmh NE 3.5 mph5.6 kmh 29.73 in1006.8 mb - 0.00 in0.0 mm 0.00 in0.0 mm
09:40 AM 38.7°F3.7°C 37.6°F3.1°C 96% 1.2 mph NE1.9 kmh NE 3.5 mph5.6 kmh 29.72 in1006.4 mb - 0.00 in0.0 mm 0.00 in0.0 mm
09:30 AM 38.7°F3.7°C 37.6°F3.1°C 96% 2.3 mph NE3.7 kmh NE 3.5 mph5.6 kmh 29.73 in1006.8 mb - 0.00 in0.0 mm 0.00 in0.0 mm
09:20 AM 38.6°F3.7°C 37.6°F3.1°C 96% 1.2 mph NE1.9 kmh NE 1.2 mph1.9 kmh 29.73 in1006.8 mb - 0.00 in0.0 mm 0.00 in0.0 mm
09:10 AM 38.4°F3.6°C 37.4°F3.0°C 96% 2.3 mph NE3.7 kmh NE 3.5 mph5.6 kmh 29.71 in1006.1 mb - 0.00 in0.0 mm 0.00 in0.0 mm
09:00 AM 38.2°F3.4°C 37.2°F2.9°C 96% 1.2 mph NE1.9 kmh NE 1.2 mph1.9 kmh 29.71 in1006.1 mb - 0.00 in0.0 mm 0.00 in0.0 mm
08:50 AM 38.2°F3.4°C 37.2°F2.9°C 96% 1.2 mph NE1.9 kmh NE 2.3 mph3.7 kmh 29.70 in1005.8 mb - 0.00 in0.0 mm 0.00 in0.0 mm
08:40 AM 38.2°F3.4°C 37.2°F2.9°C 96% 1.2 mph NE1.9 kmh NE 3.5 mph5.6 kmh 29.69 in1005.4 mb - 0.00 in0.0 mm 0.00 in0.0 mm
08:30 AM 38.1°F3.4°C 37.1°F2.8°C 96% 1.2 mph NE1.9 kmh NE 1.2 mph1.9 kmh 29.69 in1005.4 mb - 0.00 in0.0 mm 0.00 in0.0 mm
08:20 AM 37.9°F3.3°C 36.9°F2.7°C 96% 1.2 mph NE1.9 kmh NE 1.2 mph1.9 kmh 29.68 in1005.1 mb - 0.00 in0.0 mm 0.00 in0.0 mm
08:10 AM 37.9°F3.3°C 36.9°F2.7°C 96% 2.3 mph NE3.7 kmh NE 3.5 mph5.6 kmh 29.68 in1005.1 mb - 0.00 in0.0 mm 0.00 in0.0 mm
08:00 AM 38.0°F3.3°C 37.0°F2.8°C 96% 3.5 mph NE5.6 kmh NE 3.5 mph5.6 kmh 29.67 in1004.7 mb - 0.00 in0.0 mm 0.00 in0.0 mm
07:50 AM 38.2°F3.4°C 37.1°F2.8°C 96% 3.5 mph NE5.6 kmh NE 3.5 mph5.6 kmh 29.67 in1004.7 mb - 0.00 in0.0 mm 0.00 in0.0 mm
07:40 AM 38.2°F3.4°C 37.2°F2.9°C 96% 2.3 mph NE3.7 kmh NE 3.5 mph5.6 kmh 29.68 in1005.1 mb - 0.00 in0.0 mm 0.00 in0.0 mm
07:30 AM 38.1°F3.4°C 37.1°F2.8°C 96% 1.2 mph NE1.9 kmh NE 3.5 mph5.6 kmh 29.68 in1005.1 mb - 0.00 in0.0 mm 0.00 in0.0 mm
07:20 AM 38.1°F3.4°C 37.1°F2.8°C 96% 1.2 mph NE1.9 kmh NE 3.5 mph5.6 kmh 29.67 in1004.7 mb - 0.00 in0.0 mm 0.00 in0.0 mm
07:10 AM 38.0°F3.3°C 37.0°F2.8°C 96% 2.3 mph NE3.7 kmh NE 3.5 mph5.6 kmh 29.67 in1004.7 mb - 0.00 in0.0 mm 0.00 in0.0 mm
07:00 AM 38.0°F3.3°C 37.0°F2.8°C 96% 1.2 mph NE1.9 kmh NE 2.3 mph3.7 kmh 29.68 in1005.1 mb - 0.00 in0.0 mm 0.00 in0.0 mm
06:50 AM 38.0°F3.3°C 37.0°F2.8°C 96% Calm Calm 1.2 mph1.9 kmh 29.68 in1005.1 mb - 0.00 in0.0 mm 0.00 in0.0 mm
06:40 AM 38.1°F3.4°C 37.1°F2.8°C 96% 1.2 mph NE1.9 kmh NE 2.3 mph3.7 kmh 29.68 in1005.1 mb - 0.00 in0.0 mm 0.00 in0.0 mm
06:30 AM 38.5°F3.6°C 37.5°F3.1°C 96% 2.3 mph NE3.7 kmh NE 3.5 mph5.6 kmh 29.68 in1005.1 mb - 0.00 in0.0 mm 0.00 in0.0 mm
06:20 AM 38.7°F3.7°C 37.7°F3.2°C 96% 1.2 mph NE1.9 kmh NE 4.6 mph7.4 kmh 29.68 in1005.1 mb - 0.00 in0.0 mm 0.00 in0.0 mm
06:10 AM 38.8°F3.8°C 37.8°F3.2°C 96% 1.2 mph NE1.9 kmh NE 3.5 mph5.6 kmh 29.68 in1005.1 mb - 0.00 in0.0 mm 0.00 in0.0 mm
06:00 AM 39.2°F4.0°C 38.2°F3.4°C 96% 1.2 mph NE1.9 kmh NE 2.3 mph3.7 kmh 29.68 in1005.1 mb - 0.00 in0.0 mm 0.00 in0.0 mm
05:50 AM 39.4°F4.1°C 38.4°F3.6°C 96% 1.2 mph NE1.9 kmh NE 1.2 mph1.9 kmh 29.68 in1005.1 mb - 0.00 in0.0 mm 0.00 in0.0 mm
05:40 AM 39.5°F4.2°C 38.4°F3.6°C 96% Calm Calm -- 29.68 in1005.1 mb - 0.00 in0.0 mm 0.00 in0.0 mm
05:30 AM 39.5°F4.2°C 38.5°F3.6°C 96% Calm Calm -- 29.68 in1005.1 mb - 0.00 in0.0 mm 0.00 in0.0 mm
05:20 AM 39.5°F4.2°C 38.5°F3.6°C 96% Calm Calm -- 29.68 in1005.1 mb - 0.00 in0.0 mm 0.00 in0.0 mm
05:10 AM 39.6°F4.2°C 38.5°F3.6°C 96% 1.2 mph NE1.9 kmh NE 2.3 mph3.7 kmh 29.68 in1005.1 mb - 0.00 in0.0 mm 0.00 in0.0 mm
05:00 AM 39.5°F4.2°C 38.5°F3.6°C 96% Calm Calm -- 29.68 in1005.1 mb - 0.00 in0.0 mm 0.00 in0.0 mm
04:50 AM 39.5°F4.2°C 38.5°F3.6°C 96% Calm Calm -- 29.69 in1005.4 mb - 0.00 in0.0 mm 0.00 in0.0 mm
04:40 AM 39.5°F4.2°C 38.5°F3.6°C 96% Calm Calm -- 29.68 in1005.1 mb - 0.00 in0.0 mm 0.00 in0.0 mm
04:30 AM 39.6°F4.2°C 38.6°F3.7°C 96% 2.3 mph NE3.7 kmh NE 3.5 mph5.6 kmh 29.68 in1005.1 mb - 0.00 in0.0 mm 0.00 in0.0 mm
04:20 AM 39.6°F4.2°C 38.6°F3.7°C 96% Calm Calm -- 29.69 in1005.4 mb - 0.00 in0.0 mm 0.00 in0.0 mm
04:10 AM 39.6°F4.2°C 38.6°F3.7°C 96% Calm Calm -- 29.69 in1005.4 mb - 0.00 in0.0 mm 0.00 in0.0 mm
04:00 AM 39.6°F4.2°C 38.6°F3.7°C 96% Calm Calm 3.5 mph5.6 kmh 29.69 in1005.4 mb - 0.00 in0.0 mm 0.00 in0.0 mm
03:50 AM 39.7°F4.3°C 38.7°F3.7°C 96% Calm Calm 1.2 mph1.9 kmh 29.69 in1005.4 mb - 0.00 in0.0 mm 0.00 in0.0 mm
03:40 AM 39.8°F4.3°C 38.8°F3.8°C 96% 1.2 mph NE1.9 kmh NE 2.3 mph3.7 kmh 29.69 in1005.4 mb - 0.00 in0.0 mm 0.00 in0.0 mm
03:30 AM 39.9°F4.4°C 38.6°F3.7°C 95% Calm Calm 3.5 mph5.6 kmh 29.69 in1005.4 mb - 0.00 in0.0 mm 0.00 in0.0 mm
03:20 AM 40.1°F4.5°C 39.0°F3.9°C 96% 2.3 mph NE3.7 kmh NE 3.5 mph5.6 kmh 29.69 in1005.4 mb - 0.00 in0.0 mm 0.00 in0.0 mm
03:10 AM 40.0°F4.4°C 39.0°F3.9°C 96% Calm Calm -- 29.69 in1005.4 mb - 0.00 in0.0 mm 0.00 in0.0 mm
03:00 AM 40.0°F4.4°C 39.0°F3.9°C 96% Calm Calm -- 29.70 in1005.8 mb - 0.00 in0.0 mm 0.00 in0.0 mm
02:50 AM 40.1°F4.5°C 39.1°F3.9°C 96% 1.2 mph NE1.9 kmh NE 3.5 mph5.6 kmh 29.70 in1005.8 mb - 0.00 in0.0 mm 0.00 in0.0 mm
02:40 AM 40.0°F4.4°C 39.0°F3.9°C 96% 1.2 mph NE1.9 kmh NE 2.3 mph3.7 kmh 29.69 in1005.4 mb - 0.00 in0.0 mm 0.00 in0.0 mm
02:30 AM 40.1°F4.5°C 39.1°F3.9°C 96% Calm Calm 1.2 mph1.9 kmh 29.70 in1005.8 mb - 0.00 in0.0 mm 0.00 in0.0 mm
02:20 AM 40.2°F4.6°C 39.1°F3.9°C 96% Calm Calm -- 29.70 in1005.8 mb - 0.00 in0.0 mm 0.00 in0.0 mm
02:10 AM 40.1°F4.5°C 39.1°F3.9°C 96% Calm Calm 2.3 mph3.7 kmh 29.69 in1005.4 mb - 0.00 in0.0 mm 0.00 in0.0 mm
02:00 AM 40.1°F4.5°C 39.1°F3.9°C 96% Calm Calm -- 29.69 in1005.4 mb - 0.00 in0.0 mm 0.00 in0.0 mm
01:50 AM 40.0°F4.4°C 39.0°F3.9°C 96% Calm Calm -- 29.69 in1005.4 mb - 0.00 in0.0 mm 0.00 in0.0 mm
01:40 AM 40.0°F4.4°C 39.0°F3.9°C 96% Calm Calm 1.2 mph1.9 kmh 29.69 in1005.4 mb - 0.00 in0.0 mm 0.00 in0.0 mm
01:30 AM 40.1°F4.5°C 39.1°F3.9°C 96% Calm Calm 1.2 mph1.9 kmh 29.68 in1005.1 mb - 0.00 in0.0 mm 0.00 in0.0 mm
01:20 AM 40.2°F4.6°C 38.9°F3.8°C 95% 2.3 mph NE3.7 kmh NE 3.5 mph5.6 kmh 29.68 in1005.1 mb - 0.00 in0.0 mm 0.00 in0.0 mm
01:10 AM 40.5°F4.7°C 39.4°F4.1°C 96% Calm Calm -- 29.68 in1005.1 mb - 0.00 in0.0 mm 0.00 in0.0 mm
01:00 AM 40.6°F4.8°C 39.5°F4.2°C 96% 1.2 mph NE1.9 kmh NE 3.5 mph5.6 kmh 29.68 in1005.1 mb - 0.00 in0.0 mm 0.00 in0.0 mm
12:50 AM 40.7°F4.8°C 39.6°F4.2°C 96% Calm Calm 2.3 mph3.7 kmh 29.68 in1005.1 mb - 0.00 in0.0 mm 0.00 in0.0 mm
12:40 AM 40.5°F4.7°C 39.5°F4.2°C 96% Calm Calm -- 29.69 in1005.4 mb - 0.00 in0.0 mm 0.00 in0.0 mm
12:30 AM 40.6°F4.8°C 39.5°F4.2°C 96% 1.2 mph NE1.9 kmh NE 3.5 mph5.6 kmh 29.69 in1005.4 mb - 0.00 in0.0 mm 0.00 in0.0 mm
12:20 AM 40.8°F4.9°C 39.7°F4.3°C 96% Calm Calm 1.2 mph1.9 kmh 29.69 in1005.4 mb - 0.00 in0.0 mm 0.00 in0.0 mm
12:10 AM 40.7°F4.8°C 39.6°F4.2°C 96% 2.3 mph NE3.7 kmh NE 3.5 mph5.6 kmh 29.69 in1005.4 mb - 0.00 in0.0 mm 0.00 in0.0 mm
12:00 AM 40.6°F4.8°C 39.5°F4.2°C 96% Calm Calm 3.5 mph5.6 kmh 29.69 in1005.4 mb - 0.00 in0.0 mm 0.00 in0.0 mm